Time;durP1;ratioP1;P1;durP2;ratioP2;P2;SDS_P1;SDS_P2;PMS_P1;PMS_P2;Temp;Humidity;BMP_temperature;BMP_pressure;BME280_temperature;BME280_humidity;BME280_pressure;Samples;Min_cycle;Max_cycle;Signal;HPM_P1;HPM_P2
2022/10/11 00:00:36;;;;;;;40.55;23.77;;;5.90;99.90;;;;;;5110657;28;20095;-70
2022/10/11 00:03:04;;;;;;;37.88;21.70;;;5.90;99.90;;;;;;5109306;28;20020;-75
2022/10/11 00:05:30;;;;;;;38.28;19.75;;;5.90;99.90;;;;;;5109381;28;20031;-70
2022/10/11 00:07:56;;;;;;;35.42;20.00;;;5.90;99.90;;;;;;5109344;28;20108;-75
2022/10/11 00:10:22;;;;;;;40.53;19.98;;;5.90;99.90;;;;;;5110567;28;20471;-76
2022/10/11 00:12:48;;;;;;;34.53;20.02;;;5.90;99.90;;;;;;5109265;28;20415;-76
2022/10/11 00:15:16;;;;;;;39.50;21.25;;;5.90;99.90;;;;;;5110405;28;20095;-70
2022/10/11 00:17:41;;;;;;;42.20;22.90;;;5.80;99.90;;;;;;5110356;28;20028;-76
2022/10/11 00:20:07;;;;;;;48.85;25.13;;;5.80;99.90;;;;;;5108935;28;20518;-76
2022/10/11 00:22:34;;;;;;;42.22;24.90;;;5.80;99.90;;;;;;5109014;28;20020;-75
2022/10/11 00:25:00;;;;;;;40.58;24.13;;;5.70;99.90;;;;;;5110162;28;20032;-75
2022/10/11 00:27:26;;;;;;;41.20;22.02;;;5.70;99.90;;;;;;5110130;28;20053;-76
2022/10/11 00:29:52;;;;;;;36.65;22.13;;;5.70;99.90;;;;;;5110138;28;20016;-70
2022/10/11 00:32:17;;;;;;;39.60;20.88;;;5.70;99.90;;;;;;5109998;28;20036;-71
2022/10/11 00:34:43;;;;;;;37.70;19.38;;;5.70;99.90;;;;;;5109836;28;20055;-76
2022/10/11 00:37:09;;;;;;;33.95;18.85;;;5.70;99.90;;;;;;5096644;28;20031;-75
2022/10/11 00:39:34;;;;;;;30.90;17.77;;;5.70;99.90;;;;;;5096559;28;20066;-70
2022/10/11 00:42:00;;;;;;;29.15;18.00;;;5.70;99.90;;;;;;5096315;28;20416;-71
2022/10/11 00:44:28;;;;;;;30.33;16.85;;;5.70;99.90;;;;;;5096254;28;20040;-70
2022/10/11 00:47:09;;;;;;;28.58;17.38;;;5.70;99.90;;;;;;5096259;28;20028;-70
2022/10/11 00:49:38;;;;;;;31.75;17.33;;;5.70;99.90;;;;;;5096246;28;20033;-75
2022/10/11 00:52:18;;;;;;;27.98;17.00;;;5.70;99.90;;;;;;5096120;28;20035;-76
2022/10/11 00:54:46;;;;;;;30.98;17.88;;;5.70;99.90;;;;;;5096123;28;20095;-70
2022/10/11 00:57:20;;;;;;;26.33;16.58;;;5.70;99.90;;;;;;5096055;28;20048;-76
2022/10/11 00:59:49;;;;;;;32.25;17.00;;;5.80;99.90;;;;;;5095878;28;20031;-70
2022/10/11 01:02:16;;;;;;;26.70;16.63;;;5.80;99.90;;;;;;5095893;28;20059;-76
2022/10/11 01:04:42;;;;;;;27.55;17.45;;;5.80;99.90;;;;;;5095854;28;20035;-70
2022/10/11 01:07:08;;;;;;;33.03;19.52;;;5.80;99.90;;;;;;5095723;28;20024;-71
2022/10/11 01:09:34;;;;;;;33.88;20.20;;;5.80;99.90;;;;;;5095884;28;20551;-75
2022/10/11 01:12:03;;;;;;;33.33;19.63;;;5.80;99.90;;;;;;5094534;28;20172;-76
2022/10/11 01:15:07;;;;;;;30.52;20.65;;;5.90;99.90;;;;;;5095810;28;20031;-70
2022/10/11 01:17:36;;;;;;;48.08;26.60;;;5.80;99.90;;;;;;5056238;28;20032;-70
2022/10/11 01:20:39;;;;;;;46.05;26.40;;;5.80;99.90;;;;;;5091639;28;20036;-75
2022/10/11 01:23:38;;;;;;;43.80;24.27;;;5.80;99.90;;;;;;5074202;28;20104;-71
2022/10/11 01:26:40;;;;;;;50.00;27.35;;;5.80;99.90;;;;;;5082445;28;20036;-75
2022/10/11 01:29:24;;;;;;;43.88;25.48;;;5.80;99.90;;;;;;5095555;28;20080;-76
2022/10/11 01:31:57;;;;;;;50.05;26.38;;;5.80;99.90;;;;;;5094184;28;20063;-70
2022/10/11 01:34:30;;;;;;;48.42;24.85;;;5.80;99.90;;;;;;5095121;28;20104;-70
2022/10/11 01:37:16;;;;;;;42.03;26.10;;;5.80;99.90;;;;;;5095407;28;20116;-70
2022/10/11 01:39:50;;;;;;;47.70;25.02;;;5.90;99.90;;;;;;5095367;28;20032;-76
2022/10/11 01:42:18;;;;;;;41.85;23.92;;;5.90;99.90;;;;;;5095110;28;20024;-75
2022/10/11 01:44:46;;;;;;;42.20;24.00;;;6.00;99.90;;;;;;5095010;28;20485;-76
2022/10/11 01:47:12;;;;;;;40.95;24.00;;;6.00;99.90;;;;;;5094153;28;20354;-70
2022/10/11 01:49:38;;;;;;;38.55;22.17;;;6.00;99.90;;;;;;5094850;28;20016;-75
2022/10/11 01:52:05;;;;;;;43.92;23.83;;;6.10;99.90;;;;;;5093801;28;20039;-76
2022/10/11 01:54:47;;;;;;;41.90;24.40;;;6.00;99.90;;;;;;5094951;28;20400;-70
2022/10/11 01:57:18;;;;;;;48.35;27.85;;;6.00;99.90;;;;;;5089844;28;20389;-75
2022/10/11 02:00:14;;;;;;;40.58;24.30;;;6.00;99.90;;;;;;5094814;28;20020;-75
2022/10/11 02:02:59;;;;;;;47.75;27.00;;;6.00;99.90;;;;;;5094840;28;20024;-70
2022/10/11 02:05:36;;;;;;;45.42;26.83;;;6.00;99.90;;;;;;5093372;28;20118;-71
2022/10/11 02:08:31;;;;;;;48.45;27.80;;;6.00;99.90;;;;;;5094791;28;20032;-70
2022/10/11 02:11:07;;;;;;;43.92;25.63;;;6.00;99.90;;;;;;5094666;28;20024;-70
2022/10/11 02:13:46;;;;;;;46.05;24.30;;;6.00;99.90;;;;;;5094716;28;20024;-76
2022/10/11 02:16:17;;;;;;;40.40;20.83;;;6.10;99.90;;;;;;5093304;28;20027;-75
2022/10/11 02:18:46;;;;;;;39.80;22.48;;;6.20;99.90;;;;;;5093300;28;20489;-70
2022/10/11 02:21:17;;;;;;;43.33;22.45;;;6.20;99.90;;;;;;5094457;28;20385;-73
2022/10/11 02:23:48;;;;;;;39.60;24.58;;;6.20;99.90;;;;;;5094373;28;20027;-70
2022/10/11 02:26:14;;;;;;;52.60;25.27;;;6.10;99.90;;;;;;5094371;28;20020;-75
2022/10/11 02:28:43;;;;;;;46.97;24.73;;;6.10;99.90;;;;;;5092964;28;20024;-70
2022/10/11 02:31:10;;;;;;;43.33;24.15;;;6.10;99.90;;;;;;5094224;28;20103;-70
2022/10/11 02:33:49;;;;;;;53.38;30.58;;;6.10;99.90;;;;;;5094114;28;20026;-70
2022/10/11 02:36:32;;;;;;;45.88;27.55;;;6.10;99.90;;;;;;5094323;28;20024;-75
2022/10/11 02:39:03;;;;;;;45.50;29.33;;;6.00;99.90;;;;;;5092874;28;20035;-76
2022/10/11 02:41:36;;;;;;;44.45;27.17;;;6.00;99.90;;;;;;5092924;28;20020;-76
2022/10/11 02:44:39;;;;;;;51.22;30.13;;;6.00;99.90;;;;;;5093881;28;20039;-70
2022/10/11 02:47:05;;;;;;;;;;;6.00;99.90;;;;;;5092343;28;20047;-70
2022/10/11 02:49:31;;;;;;;47.38;27.33;;;6.00;99.90;;;;;;5092679;28;20288;-76
2022/10/11 02:51:57;;;;;;;48.53;27.33;;;6.00;99.90;;;;;;5092632;28;20032;-70
2022/10/11 02:54:26;;;;;;;53.03;27.58;;;6.00;99.90;;;;;;5093657;28;20020;-76
2022/10/11 02:56:52;;;;;;;53.58;28.70;;;6.00;99.90;;;;;;5092558;28;20425;-75
2022/10/11 02:59:18;;;;;;;51.00;25.83;;;6.10;99.90;;;;;;5093564;28;20078;-76
2022/10/11 03:01:43;;;;;;;47.85;27.38;;;6.10;99.90;;;;;;5093880;28;20093;-71
2022/10/11 03:04:09;;;;;;;44.15;24.25;;;6.10;99.90;;;;;;5093547;28;20036;-71
2022/10/11 03:06:34;;;;;;;42.97;25.25;;;6.10;99.90;;;;;;5092461;28;20465;-76
2022/10/11 03:09:00;;;;;;;44.45;26.35;;;6.20;99.90;;;;;;5092336;28;20008;-76
2022/10/11 03:11:26;;;;;;;47.33;29.30;;;6.20;99.90;;;;;;5093692;28;20032;-70
2022/10/11 03:13:51;;;;;;;49.00;30.77;;;6.20;99.90;;;;;;5093661;28;20043;-70
2022/10/11 03:16:17;;;;;;;45.45;26.55;;;6.10;99.90;;;;;;5093599;28;20032;-70
2022/10/11 03:18:42;;;;;;;44.20;26.23;;;6.10;99.90;;;;;;5093498;28;20048;-70
2022/10/11 03:21:08;;;;;;;47.22;28.63;;;6.10;99.90;;;;;;5093591;28;20465;-75
2022/10/11 03:23:34;;;;;;;40.58;26.45;;;6.10;99.90;;;;;;5093484;28;20028;-75
2022/10/11 03:26:00;;;;;;;47.33;27.10;;;6.20;99.90;;;;;;5092204;28;20020;-70
2022/10/11 03:28:26;;;;;;;46.35;27.38;;;6.20;99.90;;;;;;5113597;28;20027;-71
2022/10/11 03:30:51;;;;;;;49.40;27.23;;;6.20;99.90;;;;;;5113691;28;20549;-75
2022/10/11 03:33:17;;;;;;;50.08;28.55;;;6.20;99.90;;;;;;5109982;28;20024;-71
2022/10/11 03:35:47;;;;;;;44.47;26.50;;;6.20;99.90;;;;;;5092036;28;20057;-76
2022/10/11 03:38:14;;;;;;;51.47;28.77;;;6.20;99.90;;;;;;5093396;28;20039;-75
2022/10/11 03:40:41;;;;;;;51.92;27.92;;;6.20;99.90;;;;;;5093369;28;20354;-76
2022/10/11 03:43:07;;;;;;;45.90;25.75;;;6.20;99.90;;;;;;5092092;28;20038;-70
2022/10/11 03:45:32;;;;;;;46.97;28.48;;;6.30;99.90;;;;;;5091849;28;20123;-76
2022/10/11 03:47:58;;;;;;;44.13;25.85;;;6.20;99.90;;;;;;5093489;28;20545;-71
2022/10/11 03:50:23;;;;;;;52.28;29.17;;;6.20;99.90;;;;;;5093322;28;20024;-76
2022/10/11 03:52:49;;;;;;;48.22;28.88;;;6.20;99.90;;;;;;5093183;28;20108;-70
2022/10/11 03:55:15;;;;;;;52.63;30.52;;;6.20;99.90;;;;;;5093200;28;20056;-75
2022/10/11 03:57:41;;;;;;;51.25;28.45;;;6.20;99.90;;;;;;5091996;28;20051;-70
2022/10/11 04:00:07;;;;;;;45.15;28.02;;;6.20;99.90;;;;;;5091782;28;20024;-76
2022/10/11 04:02:33;;;;;;;49.30;26.75;;;6.30;99.90;;;;;;5092003;28;20032;-75
2022/10/11 04:04:59;;;;;;;43.90;27.63;;;6.30;99.90;;;;;;5092977;28;20489;-70
2022/10/11 04:07:24;;;;;;;47.75;27.60;;;6.30;99.90;;;;;;5091937;28;20029;-70
2022/10/11 04:09:51;;;;;;;51.75;29.17;;;6.30;99.90;;;;;;5091697;28;20377;-75
2022/10/11 04:12:17;;;;;;;52.50;30.83;;;6.30;99.90;;;;;;5096125;28;20008;-70
2022/10/11 04:14:42;;;;;;;61.92;34.78;;;6.30;99.90;;;;;;5096842;28;20035;-76
2022/10/11 04:17:08;;;;;;;54.97;31.25;;;6.30;99.90;;;;;;5095700;28;20055;-72
2022/10/11 04:19:36;;;;;;;56.58;29.88;;;6.30;99.90;;;;;;5096712;28;20028;-76
2022/10/11 04:22:02;;;;;;;51.55;29.60;;;6.30;99.90;;;;;;5096689;28;20103;-70
2022/10/11 04:24:28;;;;;;;55.25;31.23;;;6.30;99.90;;;;;;5095249;28;20111;-75
2022/10/11 04:26:54;;;;;;;49.15;28.45;;;6.30;99.90;;;;;;5096609;28;20440;-74
2022/10/11 04:29:19;;;;;;;45.95;26.58;;;6.30;99.90;;;;;;5095467;28;20388;-71
2022/10/11 04:31:45;;;;;;;44.65;26.58;;;6.30;99.90;;;;;;5096522;28;20023;-71
2022/10/11 04:34:10;;;;;;;44.15;25.88;;;6.30;99.90;;;;;;5096315;28;20510;-70
2022/10/11 04:36:37;;;;;;;42.63;26.13;;;6.30;99.90;;;;;;5095263;28;20111;-70
2022/10/11 04:39:04;;;;;;;43.03;26.83;;;6.30;99.90;;;;;;5096492;28;20017;-75
2022/10/11 04:41:30;;;;;;;47.65;27.02;;;6.30;99.90;;;;;;5096194;28;20028;-75
2022/10/11 04:43:55;;;;;;;50.03;28.70;;;6.20;99.90;;;;;;5096255;28;20100;-75
2022/10/11 04:46:21;;;;;;;58.85;32.03;;;6.20;99.90;;;;;;5094909;28;20027;-70
2022/10/11 04:48:46;;;;;;;64.20;34.38;;;6.20;99.90;;;;;;5096403;28;20024;-71
2022/10/11 04:51:12;;;;;;;59.97;33.50;;;6.20;99.90;;;;;;5094777;28;20123;-75
2022/10/11 04:53:37;;;;;;;54.95;28.25;;;6.20;99.90;;;;;;5095007;28;20020;-70
2022/10/11 04:56:06;;;;;;;59.83;31.88;;;6.20;99.90;;;;;;5095982;28;20024;-70
2022/10/11 04:58:33;;;;;;;55.25;30.27;;;6.20;99.90;;;;;;5094890;28;20032;-76
2022/10/11 05:00:59;;;;;;;62.30;32.47;;;6.20;99.90;;;;;;5095439;28;20375;-76
2022/10/11 05:03:25;;;;;;;426.63;160.07;;;6.20;99.90;;;;;;5096090;28;20029;-71
2022/10/11 05:05:51;;;;;;;1226.80;537.30;;;6.20;99.90;;;;;;5095701;28;20040;-70
2022/10/11 05:08:18;;;;;;;428.95;159.55;;;6.20;99.90;;;;;;5107838;28;20026;-76
2022/10/11 05:11:00;;;;;;;300.48;111.93;;;6.20;99.90;;;;;;5115988;28;20020;-76
2022/10/11 05:13:27;;;;;;;186.95;73.25;;;6.30;99.90;;;;;;5115893;28;20027;-70
2022/10/11 05:15:53;;;;;;;150.75;60.55;;;6.30;99.90;;;;;;5097754;28;20595;-69
2022/10/11 05:18:19;;;;;;;121.22;52.53;;;6.40;99.90;;;;;;5093592;28;20059;-71
2022/10/11 05:20:44;;;;;;;126.68;55.70;;;6.40;99.90;;;;;;5094649;28;20028;-76
2022/10/11 05:23:10;;;;;;;268.35;102.45;;;6.40;99.90;;;;;;5094625;28;20078;-76
2022/10/11 05:25:36;;;;;;;256.83;101.57;;;6.50;99.90;;;;;;5096123;28;20409;-69
2022/10/11 05:28:01;;;;;;;143.43;61.08;;;6.50;99.90;;;;;;5094592;28;20028;-71
2022/10/11 05:30:27;;;;;;;83.60;39.35;;;6.60;99.90;;;;;;5094021;28;20107;-69
2022/10/11 05:32:52;;;;;;;80.88;38.83;;;6.60;99.90;;;;;;5094589;28;20413;-71
2022/10/11 05:35:18;;;;;;;100.80;46.30;;;6.60;99.90;;;;;;5093009;28;20066;-70
2022/10/11 05:37:44;;;;;;;200.43;75.90;;;6.70;99.90;;;;;;5094494;28;20069;-71
2022/10/11 05:40:10;;;;;;;160.07;71.18;;;6.80;99.90;;;;;;5093098;28;20017;-69
2022/10/11 05:42:36;;;;;;;371.95;141.65;;;6.80;99.90;;;;;;5094330;28;20028;-70
2022/10/11 05:45:03;;;;;;;444.85;192.93;;;6.80;99.90;;;;;;5094146;28;20086;-77
2022/10/11 05:47:29;;;;;;;544.40;250.75;;;6.90;99.90;;;;;;5094194;28;20069;-76
2022/10/11 05:49:55;;;;;;;498.85;223.13;;;6.90;99.90;;;;;;5093582;28;20114;-75
2022/10/11 05:52:20;;;;;;;453.70;202.05;;;6.90;99.90;;;;;;5094060;28;20052;-71
2022/10/11 05:54:49;;;;;;;368.95;155.27;;;7.00;99.90;;;;;;5090646;28;20194;-73
2022/10/11 05:57:15;;;;;;;347.90;137.90;;;7.00;99.90;;;;;;5094721;28;20490;-72
2022/10/11 05:59:40;;;;;;;220.63;98.45;;;7.10;99.90;;;;;;5095685;28;20039;-71
2022/10/11 06:02:09;;;;;;;156.45;69.63;;;7.10;99.90;;;;;;5085810;28;20020;-72
2022/10/11 06:04:38;;;;;;;109.30;47.22;;;7.20;99.90;;;;;;5081831;28;20055;-75
2022/10/11 06:07:04;;;;;;;138.88;59.05;;;7.20;99.90;;;;;;5087763;28;20035;-75
2022/10/11 06:09:30;;;;;;;122.38;51.80;;;7.30;99.90;;;;;;5105117;27;20086;-72
2022/10/11 06:11:55;;;;;;;210.73;86.85;;;7.40;99.90;;;;;;5109081;28;20028;-75
2022/10/11 06:14:21;;;;;;;224.57;103.47;;;7.40;99.90;;;;;;5096689;28;20529;-76
2022/10/11 06:16:47;;;;;;;158.75;70.07;;;7.40;99.90;;;;;;5101076;28;20100;-72
2022/10/11 06:19:12;;;;;;;118.28;56.85;;;7.50;99.90;;;;;;5107497;28;20054;-72
2022/10/11 06:21:38;;;;;;;96.38;47.50;;;7.50;99.90;;;;;;5111188;28;20094;-75
2022/10/11 06:24:04;;;;;;;88.97;43.35;;;7.50;99.90;;;;;;5110246;28;20039;-71
2022/10/11 06:26:30;;;;;;;88.75;44.03;;;7.60;99.90;;;;;;5105140;28;20062;-72
2022/10/11 06:28:56;;;;;;;84.72;47.55;;;7.60;99.90;;;;;;5101917;28;20485;-71
2022/10/11 06:31:22;;;;;;;88.18;49.03;;;7.70;99.90;;;;;;5113254;28;20039;-75
2022/10/11 06:33:47;;;;;;;87.95;44.05;;;7.80;99.90;;;;;;5103727;28;20067;-75
2022/10/11 06:36:14;;;;;;;76.55;40.45;;;7.80;99.90;;;;;;5105428;27;20553;-71
2022/10/11 06:38:40;;;;;;;68.80;37.10;;;7.90;99.90;;;;;;5092325;28;20401;-72
2022/10/11 06:41:22;;;;;;;75.50;38.42;;;8.00;99.90;;;;;;5091844;28;20027;-72
2022/10/11 06:43:48;;;;;;;67.20;36.35;;;8.00;99.90;;;;;;5091619;28;20024;-76
2022/10/11 06:46:15;;;;;;;62.22;33.67;;;8.10;99.90;;;;;;5091993;28;20135;-76
2022/10/11 06:48:42;;;;;;;50.25;29.20;;;8.10;99.90;;;;;;5093645;28;20024;-72
2022/10/11 06:51:13;;;;;;;45.50;26.45;;;8.20;99.90;;;;;;5093629;28;20077;-75
2022/10/11 06:53:39;;;;;;;40.08;23.52;;;8.20;99.90;;;;;;5091852;28;20020;-71
2022/10/11 06:56:10;;;;;;;44.28;24.67;;;8.20;99.90;;;;;;5089998;28;20024;-71
2022/10/11 06:58:36;;;;;;;38.83;22.45;;;8.20;99.90;;;;;;5091317;28;20600;-75
2022/10/11 07:01:17;;;;;;;35.47;21.08;;;8.30;99.90;;;;;;5091319;28;20069;-76
2022/10/11 07:03:42;;;;;;;34.70;20.75;;;8.30;99.90;;;;;;5091538;28;20433;-75
2022/10/11 07:06:11;;;;;;;38.47;21.15;;;8.30;99.90;;;;;;5091564;28;20060;-75
2022/10/11 07:08:36;;;;;;;38.72;21.60;;;8.40;99.90;;;;;;5092763;28;20024;-75
2022/10/11 07:11:04;;;;;;;34.15;19.95;;;8.40;99.90;;;;;;5093261;28;20027;-71
2022/10/11 07:13:30;;;;;;;33.33;18.92;;;8.40;99.90;;;;;;5091797;28;20032;-71
2022/10/11 07:15:58;;;;;;;32.08;20.35;;;8.50;99.90;;;;;;5093205;28;20468;-71
2022/10/11 07:18:24;;;;;;;31.70;19.73;;;8.60;99.90;;;;;;5093000;28;20103;-71
2022/10/11 07:20:50;;;;;;;36.90;20.40;;;8.70;99.90;;;;;;5092767;28;20105;-71
2022/10/11 07:23:15;;;;;;;30.65;18.80;;;8.80;99.90;;;;;;5093198;28;20465;-72
2022/10/11 07:25:41;;;;;;;32.28;18.88;;;8.90;99.90;;;;;;5092065;28;20039;-76
2022/10/11 07:28:06;;;;;;;45.17;19.33;;;9.00;99.90;;;;;;5093099;28;20427;-76
2022/10/11 07:30:32;;;;;;;25.75;16.42;;;9.10;99.90;;;;;;5093002;28;20419;-71
2022/10/11 07:32:58;;;;;;;27.00;18.15;;;9.10;99.90;;;;;;5091651;28;20012;-71
2022/10/11 07:35:23;;;;;;;34.10;18.15;;;9.20;99.90;;;;;;5091413;28;20058;-71
2022/10/11 07:37:49;;;;;;;31.27;19.33;;;9.30;99.90;;;;;;5092912;28;20051;-71
2022/10/11 07:40:15;;;;;;;39.15;21.65;;;9.40;99.90;;;;;;5092834;28;20028;-70
2022/10/11 07:42:40;;;;;;;34.53;21.75;;;9.60;99.90;;;;;;5092896;28;20388;-71
2022/10/11 07:45:06;;;;;;;37.88;21.02;;;9.80;99.90;;;;;;5092768;28;20059;-71
2022/10/11 07:47:31;;;;;;;35.72;21.88;;;10.10;99.90;;;;;;5096603;28;20052;-71
2022/10/11 07:49:57;;;;;;;33.13;18.70;;;10.30;99.90;;;;;;5096962;28;20032;-71
2022/10/11 07:52:23;;;;;;;30.52;21.23;;;10.60;99.90;;;;;;5096891;28;20098;-71
2022/10/11 07:54:48;;;;;;;32.72;19.55;;;10.80;99.90;;;;;;5096712;28;20058;-71
2022/10/11 07:57:14;;;;;;;28.02;18.45;;;11.00;99.90;;;;;;5096602;28;20122;-72
2022/10/11 07:59:40;;;;;;;27.38;17.63;;;11.10;99.90;;;;;;5095632;28;20028;-70
2022/10/11 08:02:12;;;;;;;28.85;18.63;;;11.30;99.90;;;;;;5095584;28;20039;-70
2022/10/11 08:04:38;;;;;;;28.80;17.77;;;11.50;99.90;;;;;;5096604;28;20481;-71
2022/10/11 08:07:04;;;;;;;36.10;19.08;;;11.60;99.90;;;;;;5097097;28;20016;-70
2022/10/11 08:09:30;;;;;;;32.42;19.55;;;11.80;99.90;;;;;;5095093;28;20043;-75
2022/10/11 08:11:56;;;;;;;30.92;17.90;;;11.80;99.90;;;;;;5096215;28;20012;-75
2022/10/11 08:14:21;;;;;;;26.58;17.63;;;11.90;99.90;;;;;;5107888;28;20031;-75
2022/10/11 08:16:47;;;;;;;27.92;17.60;;;12.00;99.90;;;;;;5116555;27;20024;-75
2022/10/11 08:19:13;;;;;;;28.00;17.77;;;12.10;99.90;;;;;;5116086;28;20538;-75
2022/10/11 08:21:39;;;;;;;28.15;16.27;;;12.10;99.90;;;;;;5116460;28;20529;-70
2022/10/11 08:24:06;;;;;;;32.40;17.50;;;12.20;99.90;;;;;;5116153;28;20040;-75
2022/10/11 08:26:32;;;;;;;30.67;17.23;;;12.30;99.90;;;;;;5116417;28;20456;-70
2022/10/11 08:29:02;;;;;;;25.10;15.32;;;12.40;99.90;;;;;;5116044;28;20027;-71
2022/10/11 08:31:27;;;;;;;22.42;14.55;;;12.50;99.90;;;;;;5116277;28;20073;-75
2022/10/11 08:33:53;;;;;;;23.02;14.15;;;12.70;99.90;;;;;;5097627;28;20024;-71
2022/10/11 08:36:19;;;;;;;27.45;14.10;;;12.80;99.90;;;;;;5095974;28;20028;-75
2022/10/11 08:38:44;;;;;;;20.00;12.30;;;12.80;99.90;;;;;;5096216;28;20078;-75
2022/10/11 08:41:34;;;;;;;17.85;11.15;;;12.90;99.90;;;;;;5096370;28;20099;-70
2022/10/11 08:44:11;;;;;;;20.75;10.75;;;13.00;99.90;;;;;;5094964;28;20036;-75
2022/10/11 08:46:40;;;;;;;16.50;10.18;;;13.20;99.90;;;;;;5094990;28;20035;-75
2022/10/11 08:49:08;;;;;;;16.00;9.85;;;13.30;99.90;;;;;;5094734;28;20412;-75
2022/10/11 08:51:46;;;;;;;12.70;9.15;;;13.30;99.90;;;;;;5094518;28;20088;-70
2022/10/11 08:54:39;;;;;;;15.48;9.73;;;13.40;99.90;;;;;;5093803;28;20035;-71
2022/10/11 08:57:06;;;;;;;18.08;10.50;;;13.40;99.90;;;;;;5093572;28;20016;-70
2022/10/11 08:59:53;;;;;;;19.42;10.50;;;13.50;99.90;;;;;;5094046;28;20413;-75
2022/10/11 09:02:28;;;;;;;18.40;10.40;;;13.50;99.90;;;;;;5094082;28;20019;-75
2022/10/11 09:04:55;;;;;;;17.95;10.70;;;13.40;99.90;;;;;;5094462;28;20040;-70
2022/10/11 09:07:35;;;;;;;19.10;11.60;;;13.40;99.90;;;;;;5093725;28;20016;-75
2022/10/11 09:10:17;;;;;;;24.63;10.98;;;13.50;99.90;;;;;;5093780;28;20039;-75
2022/10/11 09:12:57;;;;;;;16.15;10.82;;;13.60;99.90;;;;;;5092450;28;20028;-70
2022/10/11 09:15:47;;;;;;;21.38;11.32;;;13.70;99.90;;;;;;5092369;28;20016;-70
2022/10/11 09:18:49;;;;;;;15.57;11.10;;;13.80;99.90;;;;;;5093667;28;20137;-75
2022/10/11 09:21:30;;;;;;;17.48;9.88;;;13.80;99.90;;;;;;5094087;28;20020;-75
2022/10/11 09:24:01;;;;;;;18.35;10.55;;;14.00;99.90;;;;;;5095285;28;20370;-70
2022/10/11 09:27:05;;;;;;;15.75;10.20;;;14.10;99.90;;;;;;5095456;28;20035;-75
2022/10/11 09:29:50;;;;;;;13.50;10.60;;;14.20;99.90;;;;;;5081279;28;20043;-70
2022/10/11 09:32:19;;;;;;;17.00;10.88;;;14.10;99.90;;;;;;5116234;28;20019;-75
2022/10/11 09:34:51;;;;;;;16.23;10.30;;;14.00;99.90;;;;;;5098857;28;20455;-70
2022/10/11 09:37:25;;;;;;;14.07;11.02;;;13.80;99.90;;;;;;5095453;28;20032;-70
2022/10/11 09:40:09;;;;;;;17.52;11.65;;;13.70;99.90;;;;;;5095313;28;20024;-71
2022/10/11 09:42:35;;;;;;;16.02;11.50;;;13.60;99.90;;;;;;5093973;28;20028;-74
2022/10/11 09:45:01;;;;;;;14.20;11.73;;;13.50;99.90;;;;;;5093690;28;20177;-70
2022/10/11 09:47:29;;;;;;;19.15;12.13;;;13.60;99.90;;;;;;5095242;28;20112;-70
2022/10/11 09:50:05;;;;;;;19.45;11.52;;;13.70;99.90;;;;;;5093723;28;20233;-75
2022/10/11 09:52:31;;;;;;;17.33;11.68;;;13.80;99.90;;;;;;5094022;28;20012;-70
2022/10/11 09:55:01;;;;;;;18.08;11.77;;;13.80;99.90;;;;;;5093483;28;20059;-70
2022/10/11 09:57:34;;;;;;;17.58;11.80;;;13.80;99.90;;;;;;5094779;28;20055;-70
2022/10/11 10:00:06;;;;;;;18.00;11.68;;;13.60;99.90;;;;;;5094424;28;20508;-75
2022/10/11 10:02:50;;;;;;;15.00;11.13;;;13.50;99.90;;;;;;5093452;28;20024;-75
2022/10/11 10:05:19;;;;;;;15.80;10.38;;;13.50;99.90;;;;;;5094281;28;20508;-70
2022/10/11 10:08:08;;;;;;;17.00;11.45;;;13.50;99.90;;;;;;5094377;28;20016;-70
2022/10/11 10:10:50;;;;;;;17.42;11.90;;;13.60;99.90;;;;;;5093185;28;20058;-69
2022/10/11 10:13:33;;;;;;;18.40;11.88;;;13.50;99.90;;;;;;5094055;28;20079;-70
2022/10/11 10:15:59;;;;;;;19.25;11.38;;;13.30;99.90;;;;;;5113181;28;20024;-75
2022/10/11 10:18:56;;;;;;;16.23;10.65;;;13.30;99.90;;;;;;5113243;28;20022;-75
2022/10/11 10:21:49;;;;;;;17.80;10.15;;;13.00;99.90;;;;;;5112713;28;20378;-76
2022/10/11 10:24:29;;;;;;;11.70;9.60;;;12.80;99.90;;;;;;5109588;28;20070;-69
2022/10/11 10:27:15;;;;;;;14.98;10.48;;;12.70;99.90;;;;;;5114539;28;20012;-74
2022/10/11 10:29:42;;;;;;;14.82;10.95;;;12.70;99.90;;;;;;5114422;28;20441;-71
2022/10/11 10:32:12;;;;;;;19.23;10.32;;;12.70;99.90;;;;;;5114511;28;20022;-75
2022/10/11 10:34:51;;;;;;;18.00;10.77;;;12.60;99.90;;;;;;5093966;28;20056;-75
2022/10/11 10:37:32;;;;;;;13.95;9.75;;;12.70;99.90;;;;;;5094136;28;20373;-70
2022/10/11 10:40:21;;;;;;;15.55;10.02;;;12.70;99.90;;;;;;5093921;28;20024;-75
2022/10/11 10:42:46;;;;;;;15.52;9.40;;;12.60;99.90;;;;;;5093968;28;20098;-70
2022/10/11 10:45:17;;;;;;;12.77;9.00;;;12.70;99.90;;;;;;5093425;28;20123;-70
2022/10/11 10:48:02;;;;;;;17.70;10.23;;;12.80;99.90;;;;;;5092850;28;20046;-75
2022/10/11 10:50:51;;;;;;;13.70;10.40;;;12.90;99.90;;;;;;5094140;28;20120;-70
2022/10/11 10:53:38;;;;;;;14.85;9.40;;;13.00;99.90;;;;;;5088287;28;20036;-70
2022/10/11 10:56:12;;;;;;;14.23;9.80;;;13.20;99.90;;;;;;5093801;28;20016;-75
2022/10/11 10:59:04;;;;;;;14.27;10.40;;;13.10;99.90;;;;;;5092288;28;20020;-70
2022/10/11 11:01:32;;;;;;;13.13;8.80;;;13.10;99.90;;;;;;5089940;28;20044;-75
2022/10/11 11:04:11;;;;;;;14.80;9.25;;;13.20;99.90;;;;;;5089874;28;20020;-75
2022/10/11 11:06:57;;;;;;;18.27;10.02;;;13.30;99.90;;;;;;5084196;28;20028;-76
2022/10/11 11:09:48;;;;;;;12.65;8.60;;;13.30;99.90;;;;;;5093109;28;20027;-76
2022/10/11 11:12:32;;;;;;;11.95;7.50;;;13.30;99.90;;;;;;5093230;28;20478;-70
2022/10/11 11:15:03;;;;;;;11.95;8.18;;;13.30;99.90;;;;;;5093040;28;20148;-70
2022/10/11 11:17:48;;;;;;;13.25;8.48;;;13.40;99.90;;;;;;5093044;28;20024;-70
2022/10/11 11:20:30;;;;;;;9.75;7.03;;;13.40;99.90;;;;;;5102063;28;20023;-75
2022/10/11 11:23:05;;;;;;;7.63;6.38;;;13.20;99.90;;;;;;5113779;28;20162;-69
2022/10/11 11:26:10;;;;;;;6.35;5.65;;;13.40;99.90;;;;;;5112893;28;20037;-69
2022/10/11 11:29:12;;;;;;;7.20;5.40;;;13.40;99.90;;;;;;5113658;28;20362;-75
2022/10/11 11:32:01;;;;;;;8.48;5.82;;;13.40;99.90;;;;;;5093208;28;20033;-75
2022/10/11 11:34:31;;;;;;;7.90;5.88;;;13.40;99.90;;;;;;5092650;28;20071;-70
2022/10/11 11:37:04;;;;;;;9.65;6.35;;;13.60;99.90;;;;;;5093096;28;20031;-70
2022/10/11 11:39:29;;;;;;;9.45;6.90;;;13.50;99.90;;;;;;5093373;28;20031;-70
2022/10/11 11:42:09;;;;;;;7.75;6.38;;;13.50;99.90;;;;;;5093091;28;20032;-71
2022/10/11 11:44:50;;;;;;;12.05;6.70;;;13.50;99.90;;;;;;5090133;28;20466;-70
2022/10/11 11:47:36;;;;;;;7.93;5.55;;;13.50;99.90;;;;;;5092453;27;20089;-70
2022/10/11 11:50:04;;;;;;;9.50;5.22;;;13.40;99.90;;;;;;5094973;28;20023;-76
2022/10/11 11:52:40;;;;;;;7.78;5.57;;;13.30;99.90;;;;;;5111698;28;20026;-75
2022/10/11 11:55:20;;;;;;;12.20;6.30;;;13.30;99.90;;;;;;5105421;28;20016;-75
2022/10/11 11:57:51;;;;;;;8.00;6.00;;;13.10;99.90;;;;;;5088711;28;20043;-75
2022/10/11 12:00:23;;;;;;;12.80;5.97;;;13.10;99.90;;;;;;5111966;28;20072;-75
2022/10/11 12:02:54;;;;;;;8.15;6.47;;;13.20;99.90;;;;;;5102946;28;20042;-73
2022/10/11 12:05:28;;;;;;;10.30;5.90;;;13.00;99.90;;;;;;5107835;28;20133;-69
2022/10/11 12:07:59;;;;;;;7.85;5.53;;;13.00;99.90;;;;;;5112271;28;20047;-70
2022/10/11 12:10:33;;;;;;;9.43;6.05;;;13.10;99.90;;;;;;5099187;28;20465;-69
2022/10/11 12:13:19;;;;;;;8.40;5.65;;;13.30;99.90;;;;;;5111814;27;20464;-70
2022/10/11 12:16:02;;;;;;;10.75;5.53;;;13.50;99.90;;;;;;5101129;28;20024;-70
2022/10/11 12:18:29;;;;;;;5.75;4.55;;;13.60;99.90;;;;;;5103073;28;20461;-69
2022/10/11 12:21:19;;;;;;;6.70;4.72;;;13.50;99.90;;;;;;5103922;28;20023;-69
2022/10/11 12:23:54;;;;;;;9.02;6.07;;;13.50;99.90;;;;;;5088022;28;20035;-74
2022/10/11 12:26:36;;;;;;;6.63;5.63;;;13.60;99.90;;;;;;5112078;28;20115;-74
2022/10/11 12:29:20;;;;;;;9.00;5.63;;;13.70;99.90;;;;;;5112227;28;20028;-74
2022/10/11 12:31:58;;;;;;;7.15;5.97;;;13.70;99.90;;;;;;5085621;28;20261;-74
2022/10/11 12:34:41;;;;;;;6.47;4.82;;;13.70;99.90;;;;;;5100094;28;20370;-74
2022/10/11 12:37:16;;;;;;;;;;;13.80;99.90;;;;;;5100880;28;20127;-70
2022/10/11 12:39:46;;;;;;;8.15;5.10;;;13.70;99.90;;;;;;5095062;28;19908;-73
2022/10/11 12:42:25;;;;;;;7.40;5.22;;;13.60;99.90;;;;;;5092073;28;20020;-74
2022/10/11 12:45:09;;;;;;;7.15;5.25;;;13.60;99.90;;;;;;5094592;28;20024;-69
2022/10/11 12:47:52;;;;;;;6.90;5.15;;;13.50;99.90;;;;;;5092431;28;20545;-74
2022/10/11 12:50:56;;;;;;;7.45;4.93;;;13.40;99.90;;;;;;5092867;28;20027;-73
2022/10/11 12:53:24;;;;;;;7.57;4.80;;;13.40;99.90;;;;;;5090827;28;20437;-69
2022/10/11 12:56:12;;;;;;;7.90;4.57;;;13.40;99.10;;;;;;5094095;28;20056;-69
2022/10/11 12:58:42;;;;;;;7.53;4.57;;;13.50;98.50;;;;;;5091878;28;20469;-69